Terminal Aerodrome Forecast
Issued by NWS

Home | Current Version | Previous Version | Graphics & Text | Print | Product List | Glossary On
Versions: 1 2 3 4 5 6 7 8 9 10 11 12 13 14 15 16 17 18 19 20 21 22 23 24 25 26
000
FTUS43 KLOT 180304 AAA
TAFORD
TAF AMD
KORD 180304Z 1803/1906 23004KT P6SM SCT025 OVC035
     FM180600 24005KT 5SM BR BKN010
     FM180800 24007KT 3SM -DZ BR OVC007
      TEMPO 1810/1814 1SM -DZ BR
     FM181600 24012KT P6SM BKN015
     FM182000 24010KT P6SM SCT035
     FM190000 22012KT P6SM SKC WS020/27045KT=

USA.gov is the U.S. government's official web portal to all federal, state and local government web resources and services.